createdAt,value
2023-01-21T00:00:25.107Z,74.13
2023-01-21T00:05:27.488Z,74.33
2023-01-21T00:10:29.395Z,74.23
2023-01-21T00:15:31.428Z,74.29
2023-01-21T00:20:33.577Z,74.20
2023-01-21T00:25:35.375Z,74.16
2023-01-21T00:30:37.316Z,74.22
2023-01-21T00:35:42.207Z,74.08
2023-01-21T00:40:44.288Z,74.17
2023-01-21T00:45:46.073Z,74.19
2023-01-21T00:50:47.841Z,74.06
2023-01-21T00:55:49.660Z,74.14
2023-01-21T01:01:00.000Z,74.18
2023-01-21T01:06:07.758Z,74.12
2023-01-21T01:11:10.196Z,74.15
2023-01-21T01:16:14.642Z,74.05
2023-01-21T01:21:19.466Z,74.09
2023-01-21T01:26:22.327Z,74.08
2023-01-21T01:31:24.241Z,74.06
2023-01-21T01:36:26.221Z,74.08
2023-01-21T01:41:30.134Z,74.30
2023-01-21T01:46:34.997Z,74.15
2023-01-21T01:51:59.563Z,74.11
2023-01-21T01:57:05.529Z,74.48
2023-01-21T02:02:11.650Z,74.10
2023-01-21T02:07:14.169Z,73.89
2023-01-21T02:12:18.226Z,74.20
2023-01-21T02:18:00.143Z,74.45
2023-01-21T02:23:10.721Z,74.26
2023-01-21T02:28:41.950Z,74.20
2023-01-21T02:34:08.430Z,74.06
2023-01-21T02:39:21.982Z,74.18
2023-01-21T02:44:39.276Z,74.15
2023-01-21T02:50:29.122Z,74.23
2023-01-21T02:55:35.840Z,74.24
2023-01-21T03:01:07.894Z,74.34
2023-01-21T03:06:49.017Z,74.26
2023-01-21T03:12:11.758Z,74.48
2023-01-21T03:17:33.380Z,74.47
2023-01-21T03:22:37.780Z,74.34
2023-01-21T03:27:43.704Z,74.33
2023-01-21T03:32:49.762Z,74.46
2023-01-21T03:38:10.108Z,74.63
2023-01-21T03:43:12.013Z,74.61
2023-01-21T03:48:37.710Z,74.54
2023-01-21T03:53:43.265Z,74.51
2023-01-21T03:58:45.148Z,74.66
2023-01-21T04:03:47.039Z,74.62
2023-01-21T04:08:49.510Z,74.73
2023-01-21T04:13:51.367Z,74.60
2023-01-21T04:18:54.085Z,74.64
2023-01-21T04:23:55.845Z,74.59
2023-01-21T04:28:57.721Z,74.65
2023-01-21T04:33:59.538Z,74.78
2023-01-21T04:39:01.563Z,74.87
2023-01-21T04:44:03.422Z,74.97
2023-01-21T04:49:05.392Z,74.86
2023-01-21T04:54:07.189Z,74.88
2023-01-21T04:59:09.002Z,74.77
2023-01-21T05:04:10.805Z,74.77
2023-01-21T05:09:12.626Z,74.82
2023-01-21T05:14:14.447Z,74.94
2023-01-21T05:19:16.509Z,74.73
2023-01-21T05:24:18.858Z,74.78
2023-01-21T05:29:20.712Z,74.98
2023-01-21T05:34:22.526Z,74.68
2023-01-21T05:39:24.520Z,74.78
2023-01-21T05:44:26.390Z,74.69
2023-01-21T05:49:28.445Z,74.64
2023-01-21T05:54:30.524Z,74.60
2023-01-21T05:59:32.388Z,74.74
2023-01-21T06:04:34.232Z,74.41
2023-01-21T06:09:36.055Z,74.64
2023-01-21T06:14:37.820Z,74.73
2023-01-21T06:19:39.653Z,74.47
2023-01-21T06:24:41.724Z,74.78
2023-01-21T06:29:44.108Z,74.69
2023-01-21T06:34:46.760Z,74.67
2023-01-21T06:39:48.575Z,74.82
2023-01-21T06:44:50.298Z,74.65
2023-01-21T06:49:52.089Z,74.64
2023-01-21T06:54:53.932Z,74.77
2023-01-21T06:59:55.879Z,75.19
2023-01-21T07:04:59.161Z,74.85
2023-01-21T07:10:01.217Z,75.02
2023-01-21T07:15:03.111Z,74.88
2023-01-21T07:20:06.016Z,74.84
2023-01-21T07:25:08.767Z,74.74
2023-01-21T07:30:21.020Z,74.86
2023-01-21T07:35:23.000Z,74.67
2023-01-21T07:40:24.919Z,74.93
2023-01-21T07:45:27.039Z,74.80
2023-01-21T07:50:28.976Z,74.81
2023-01-21T07:55:31.304Z,74.90
2023-01-21T08:00:33.183Z,74.96
2023-01-21T08:05:35.087Z,74.83
2023-01-21T08:10:36.969Z,74.86
2023-01-21T08:15:38.791Z,74.95
2023-01-21T08:20:40.685Z,74.90
2023-01-21T08:25:42.470Z,74.88
2023-01-21T08:30:44.932Z,74.87
2023-01-21T08:35:46.818Z,75.00
2023-01-21T08:40:48.545Z,74.85
2023-01-21T08:45:50.535Z,75.29
2023-01-21T08:50:52.649Z,75.23
2023-01-21T08:56:02.192Z,75.09
2023-01-21T09:01:09.018Z,75.34
2023-01-21T09:06:11.400Z,75.22
2023-01-21T09:11:13.410Z,75.22
2023-01-21T09:16:18.367Z,75.07
2023-01-21T09:21:20.184Z,75.18
2023-01-21T09:26:24.089Z,75.14
2023-01-21T09:31:27.855Z,75.33
2023-01-21T09:36:31.982Z,75.35
2023-01-21T09:41:40.829Z,75.32
2023-01-21T09:46:51.433Z,75.28
2023-01-21T09:52:03.181Z,75.36
2023-01-21T09:57:31.939Z,75.62
2023-01-21T10:02:50.055Z,75.32
2023-01-21T10:08:07.379Z,75.30
2023-01-21T10:13:56.890Z,75.37
2023-01-21T10:19:02.174Z,75.10
2023-01-21T10:24:14.437Z,75.45
2023-01-21T10:29:21.596Z,75.61
2023-01-21T10:34:23.497Z,75.43
2023-01-21T10:39:31.519Z,75.54
2023-01-21T10:44:48.429Z,75.54
2023-01-21T10:50:02.309Z,75.54
2023-01-21T10:55:42.696Z,75.67
2023-01-21T11:00:48.772Z,75.65
2023-01-21T11:05:50.969Z,75.54
2023-01-21T11:10:55.424Z,75.77
2023-01-21T11:16:00.187Z,75.65
2023-01-21T11:21:22.005Z,75.67
2023-01-21T11:26:28.719Z,75.69
2023-01-21T11:31:32.334Z,75.63
2023-01-21T11:36:34.562Z,75.58
2023-01-21T11:41:36.621Z,75.65
2023-01-21T11:46:41.718Z,75.74
2023-01-21T11:51:45.826Z,75.74
2023-01-21T11:57:18.861Z,75.64
2023-01-21T12:02:31.374Z,75.60
2023-01-21T12:07:37.873Z,75.48
2023-01-21T12:13:08.294Z,75.64
2023-01-21T12:18:33.147Z,75.98
2023-01-21T12:24:10.141Z,75.82
2023-01-21T12:29:30.865Z,75.98
2023-01-21T12:34:38.812Z,76.03
2023-01-21T12:39:42.835Z,75.72
2023-01-21T12:44:59.880Z,76.02
2023-01-21T12:50:16.617Z,76.09
2023-01-21T12:55:23.877Z,76.19
2023-01-21T13:00:40.187Z,76.23
2023-01-21T13:05:57.026Z,76.17
2023-01-21T13:11:20.403Z,76.25
2023-01-21T13:16:26.510Z,76.31
2023-01-21T13:21:42.074Z,76.58
2023-01-21T13:27:30.765Z,76.65
2023-01-21T13:32:47.270Z,76.42
2023-01-21T13:38:10.547Z,76.73
2023-01-21T13:43:44.234Z,76.78
2023-01-21T13:49:13.251Z,76.83
2023-01-21T13:54:26.783Z,77.03
2023-01-21T13:59:38.757Z,76.96
2023-01-21T14:04:49.602Z,77.09
2023-01-21T14:10:06.926Z,77.12
2023-01-21T14:15:14.541Z,77.55
2023-01-21T14:20:19.429Z,77.92
2023-01-21T14:25:42.216Z,77.82
2023-01-21T14:30:52.209Z,77.96
2023-01-21T14:36:03.740Z,77.92
2023-01-21T14:41:10.710Z,77.94
2023-01-21T14:46:27.757Z,77.88
2023-01-21T14:51:32.001Z,78.04
2023-01-21T14:56:35.416Z,78.04
2023-01-21T15:01:45.086Z,78.19
2023-01-21T15:06:49.204Z,78.27
2023-01-21T15:11:56.629Z,78.17
2023-01-21T15:16:58.641Z,78.37
2023-01-21T15:22:16.338Z,78.39
2023-01-21T15:27:25.919Z,78.40
2023-01-21T15:32:32.991Z,78.30
2023-01-21T15:37:39.835Z,78.34
2023-01-21T15:42:51.348Z,78.66
2023-01-21T15:48:40.949Z,78.87
2023-01-21T15:53:52.184Z,78.68
2023-01-21T15:59:21.930Z,78.76
2023-01-21T16:04:29.618Z,78.77
2023-01-21T16:09:43.575Z,78.78
2023-01-21T16:15:17.832Z,78.91
2023-01-21T16:20:20.309Z,78.76
2023-01-21T16:25:24.530Z,78.98
2023-01-21T16:30:29.133Z,78.94
2023-01-21T16:35:47.311Z,78.83
2023-01-21T16:40:49.804Z,78.89
2023-01-21T16:45:55.425Z,78.96
2023-01-21T16:50:58.210Z,79.10
2023-01-21T16:56:00.206Z,78.84
2023-01-21T17:01:18.266Z,78.97
2023-01-21T17:06:22.790Z,79.16
2023-01-21T17:11:24.775Z,78.92
2023-01-21T17:16:30.527Z,78.87
2023-01-21T17:21:51.231Z,79.11
2023-01-21T17:27:00.706Z,78.98
2023-01-21T17:32:25.814Z,78.99
2023-01-21T17:37:51.341Z,79.03
2023-01-21T17:42:54.142Z,78.72
2023-01-21T17:48:09.483Z,79.11
2023-01-21T17:53:28.663Z,79.00
2023-01-21T17:58:45.977Z,79.05
2023-01-21T18:03:47.923Z,79.10
2023-01-21T18:08:51.037Z,79.19
2023-01-21T18:13:52.890Z,79.12
2023-01-21T18:18:55.158Z,79.03
2023-01-21T18:23:56.990Z,79.10
2023-01-21T18:28:58.939Z,79.06
2023-01-21T18:34:00.937Z,78.92
2023-01-21T18:39:02.791Z,79.09
2023-01-21T18:44:04.923Z,79.08
2023-01-21T18:49:11.583Z,79.00
2023-01-21T18:54:15.421Z,78.97
2023-01-21T18:59:20.209Z,79.03
2023-01-21T19:04:22.287Z,79.07
2023-01-21T19:09:25.207Z,79.07
2023-01-21T19:14:26.942Z,79.07
2023-01-21T19:19:28.872Z,78.84
2023-01-21T19:24:31.043Z,79.07
2023-01-21T19:29:33.265Z,78.95
2023-01-21T19:34:35.130Z,78.86
2023-01-21T19:39:36.928Z,78.99
2023-01-21T19:44:41.721Z,78.84
2023-01-21T19:49:43.808Z,78.97
2023-01-21T19:54:45.715Z,79.04
2023-01-21T19:59:49.616Z,79.00
2023-01-21T20:04:51.439Z,79.27
2023-01-21T20:09:53.310Z,79.02
2023-01-21T20:14:55.255Z,78.94
2023-01-21T20:19:57.136Z,79.04
2023-01-21T20:24:59.039Z,79.12
2023-01-21T20:30:15.744Z,79.00
2023-01-21T20:35:20.686Z,78.87
2023-01-21T20:40:25.581Z,79.04
2023-01-21T20:45:34.465Z,79.10
2023-01-21T20:50:36.345Z,79.07
2023-01-21T20:55:38.669Z,79.07
2023-01-21T21:00:41.179Z,78.92
2023-01-21T21:05:43.228Z,79.05
2023-01-21T21:10:46.005Z,78.93
2023-01-21T21:15:49.648Z,79.00
2023-01-21T21:20:52.113Z,79.12
2023-01-21T21:25:55.443Z,78.96
2023-01-21T21:30:57.382Z,79.00
2023-01-21T21:35:59.146Z,78.91
2023-01-21T21:41:21.012Z,78.78
2023-01-21T21:46:41.332Z,78.90
2023-01-21T21:51:45.823Z,78.87
2023-01-21T21:56:48.243Z,78.82
2023-01-21T22:01:50.066Z,78.97
2023-01-21T22:06:51.915Z,78.80
2023-01-21T22:11:53.875Z,78.93
2023-01-21T22:16:55.731Z,79.18
2023-01-21T22:21:57.534Z,78.93
2023-01-21T22:26:59.350Z,79.04
2023-01-21T22:32:03.905Z,79.07
2023-01-21T22:37:05.770Z,78.91
2023-01-21T22:42:07.612Z,78.91
2023-01-21T22:47:09.508Z,78.84
2023-01-21T22:52:11.372Z,78.84
2023-01-21T22:57:13.406Z,79.22
2023-01-21T23:02:15.300Z,78.73
2023-01-21T23:07:17.479Z,79.12
2023-01-21T23:12:19.233Z,78.85
2023-01-21T23:17:21.036Z,79.02
2023-01-21T23:22:22.805Z,78.90
2023-01-21T23:27:24.643Z,78.93
2023-01-21T23:32:26.441Z,78.94
2023-01-21T23:37:28.385Z,79.12
2023-01-21T23:42:32.113Z,78.99
2023-01-21T23:47:34.099Z,79.08
2023-01-21T23:52:40.263Z,79.13
2023-01-21T23:57:42.256Z,78.99
